Congonhas Airport
SBSP : rendu visible

Aérodrome :











RETROUVEZ-NOUS SUR...

 
LOGIN :

S'inscrire | Disclaimer

   EN    FR    IT 

 









Légende :    VFR   VFR Marginal   IFR   IFR Intensif   IFR Très Intensif
Visi : 
Plafond : 
>= 8 km
>= 3000ft
5 à 8 km
1000 à 3000 ft
1500m à 5 km
500 à 1000 ft
800 à 1500m
200 à 500 ft
< 800m
< 200 ft
Symboles :   Orages  Brouillard  Fortes neiges  Fortes précipitations  Vent > 20 kt






- Altitude de l'aérodrome : 2631 ft
- Code IATA : CGH


SBSP - Congonhas

DERNIER METAR :
  • 041800Z 15011KT CAVOK 24/15 Q1015

METARs EXPIRÉS :
  • 041700Z VRB04KT CAVOK 25/12 Q1015
  • 041600Z 16006KT 100V210 CAVOK 24/14 Q1016

TAF TAF SBSP
Valide du 04 à 18h jusqu'au 05 à 06h UTC


041601Z 0418/0506 16008KT 9999 SCT035 TX27/0418Z TN15/0505Z
BECMG 0418/0420 BKN020
BECMG 0422/0424 14005KT
BECMG 0500/0502 11003KT
PROB30 0502/0506 SCT008 BKN012 RMK PGO



MET'MAP, la Météo Aéronautique d'un coup d'oeil ! - Copyright ORBIFLY Décembre 2007 - Disclaimer

ORBIFLY MET'MAP TEAM :

Programmation & Développement : Alexandra Zaïnal
Sur une idée originale de : Baudouin d'Aumeries
Assistance à la programmation : Marc-Olivier Méhu
Soutien technique & logistique : Manuel Goepfert

Contact : metmap@orbifly.com




SOURCES & CREDITS :

   NOAA       Earth
Advisory